sensor_id;sensor_type;location;lat;lon;timestamp;P1;durP1;ratioP1;P2;durP2;ratioP2
43088;SDS011;28709;52.030;5.652;2023-05-10T00:00:52;29.50;;;17.00;;
43088;SDS011;28709;52.030;5.652;2023-05-10T00:03:18;35.35;;;19.92;;
43088;SDS011;28709;52.030;5.652;2023-05-10T00:05:44;35.05;;;19.80;;
43088;SDS011;28709;52.030;5.652;2023-05-10T00:08:09;35.03;;;20.00;;
43088;SDS011;28709;52.030;5.652;2023-05-10T00:10:35;35.60;;;20.17;;
43088;SDS011;28709;52.030;5.652;2023-05-10T00:13:02;38.63;;;21.40;;
43088;SDS011;28709;52.030;5.652;2023-05-10T00:15:28;31.25;;;18.95;;
43088;SDS011;28709;52.030;5.652;2023-05-10T00:17:55;27.00;;;17.95;;
43088;SDS011;28709;52.030;5.652;2023-05-10T00:20:21;34.08;;;18.63;;
43088;SDS011;28709;52.030;5.652;2023-05-10T00:22:47;32.28;;;19.25;;
43088;SDS011;28709;52.030;5.652;2023-05-10T00:25:13;39.53;;;22.70;;
43088;SDS011;28709;52.030;5.652;2023-05-10T00:27:39;34.25;;;19.63;;
43088;SDS011;28709;52.030;5.652;2023-05-10T00:30:04;35.05;;;21.40;;
43088;SDS011;28709;52.030;5.652;2023-05-10T00:32:31;32.13;;;20.27;;
43088;SDS011;28709;52.030;5.652;2023-05-10T00:34:57;30.38;;;19.20;;
43088;SDS011;28709;52.030;5.652;2023-05-10T00:37:22;38.63;;;23.15;;
43088;SDS011;28709;52.030;5.652;2023-05-10T00:39:48;32.22;;;20.13;;
43088;SDS011;28709;52.030;5.652;2023-05-10T00:42:14;31.90;;;19.92;;
43088;SDS011;28709;52.030;5.652;2023-05-10T00:44:39;32.42;;;20.08;;
43088;SDS011;28709;52.030;5.652;2023-05-10T00:47:05;36.67;;;21.48;;
43088;SDS011;28709;52.030;5.652;2023-05-10T00:49:31;39.15;;;22.38;;
43088;SDS011;28709;52.030;5.652;2023-05-10T00:51:57;42.63;;;25.10;;
43088;SDS011;28709;52.030;5.652;2023-05-10T00:54:23;34.25;;;21.25;;
43088;SDS011;28709;52.030;5.652;2023-05-10T00:56:49;33.67;;;20.92;;
43088;SDS011;28709;52.030;5.652;2023-05-10T00:59:15;33.95;;;20.17;;
43088;SDS011;28709;52.030;5.652;2023-05-10T01:01:43;31.98;;;19.38;;
43088;SDS011;28709;52.030;5.652;2023-05-10T01:04:10;30.25;;;18.35;;
43088;SDS011;28709;52.030;5.652;2023-05-10T01:06:37;28.70;;;17.58;;
43088;SDS011;28709;52.030;5.652;2023-05-10T01:09:03;34.08;;;20.15;;
43088;SDS011;28709;52.030;5.652;2023-05-10T01:11:29;24.83;;;15.45;;
43088;SDS011;28709;52.030;5.652;2023-05-10T01:13:55;28.75;;;17.42;;
43088;SDS011;28709;52.030;5.652;2023-05-10T01:16:22;33.20;;;20.02;;
43088;SDS011;28709;52.030;5.652;2023-05-10T01:18:49;35.55;;;20.55;;
43088;SDS011;28709;52.030;5.652;2023-05-10T01:35:03;39.40;;;21.90;;
43088;SDS011;28709;52.030;5.652;2023-05-10T01:37:55;37.53;;;21.42;;
43088;SDS011;28709;52.030;5.652;2023-05-10T01:40:35;40.05;;;21.80;;
43088;SDS011;28709;52.030;5.652;2023-05-10T01:43:08;44.55;;;23.45;;
43088;SDS011;28709;52.030;5.652;2023-05-10T01:46:03;42.90;;;22.88;;
43088;SDS011;28709;52.030;5.652;2023-05-10T01:48:47;47.47;;;24.50;;
43088;SDS011;28709;52.030;5.652;2023-05-10T01:51:17;42.22;;;21.80;;
43088;SDS011;28709;52.030;5.652;2023-05-10T01:53:47;36.15;;;20.65;;
43088;SDS011;28709;52.030;5.652;2023-05-10T01:56:16;38.55;;;20.73;;
43088;SDS011;28709;52.030;5.652;2023-05-10T01:58:44;32.38;;;19.05;;
43088;SDS011;28709;52.030;5.652;2023-05-10T02:01:12;34.17;;;18.95;;
43088;SDS011;28709;52.030;5.652;2023-05-10T02:03:39;39.05;;;21.27;;
43088;SDS011;28709;52.030;5.652;2023-05-10T02:06:07;42.13;;;21.85;;
43088;SDS011;28709;52.030;5.652;2023-05-10T02:08:35;40.33;;;21.65;;
43088;SDS011;28709;52.030;5.652;2023-05-10T02:11:02;38.70;;;21.35;;
43088;SDS011;28709;52.030;5.652;2023-05-10T02:13:30;39.53;;;20.83;;
43088;SDS011;28709;52.030;5.652;2023-05-10T02:15:58;48.30;;;26.08;;
43088;SDS011;28709;52.030;5.652;2023-05-10T02:18:25;44.88;;;23.17;;
43088;SDS011;28709;52.030;5.652;2023-05-10T02:20:52;48.35;;;24.15;;
43088;SDS011;28709;52.030;5.652;2023-05-10T02:23:20;43.00;;;22.75;;
43088;SDS011;28709;52.030;5.652;2023-05-10T02:25:48;46.22;;;23.23;;
43088;SDS011;28709;52.030;5.652;2023-05-10T02:28:15;41.80;;;22.40;;
43088;SDS011;28709;52.030;5.652;2023-05-10T02:30:43;45.58;;;23.60;;
43088;SDS011;28709;52.030;5.652;2023-05-10T02:33:09;49.08;;;24.92;;
43088;SDS011;28709;52.030;5.652;2023-05-10T02:35:36;40.50;;;21.40;;
43088;SDS011;28709;52.030;5.652;2023-05-10T02:38:03;49.20;;;25.85;;
43088;SDS011;28709;52.030;5.652;2023-05-10T02:40:30;42.95;;;21.38;;
43088;SDS011;28709;52.030;5.652;2023-05-10T02:42:57;46.60;;;23.45;;
43088;SDS011;28709;52.030;5.652;2023-05-10T02:45:27;47.33;;;23.52;;
43088;SDS011;28709;52.030;5.652;2023-05-10T02:47:55;41.85;;;21.52;;
43088;SDS011;28709;52.030;5.652;2023-05-10T02:50:21;52.38;;;24.98;;
43088;SDS011;28709;52.030;5.652;2023-05-10T02:52:51;50.33;;;24.30;;
43088;SDS011;28709;52.030;5.652;2023-05-10T02:55:19;62.75;;;29.35;;
43088;SDS011;28709;52.030;5.652;2023-05-10T02:57:57;58.42;;;29.23;;
43088;SDS011;28709;52.030;5.652;2023-05-10T03:00:25;51.20;;;27.65;;
43088;SDS011;28709;52.030;5.652;2023-05-10T03:02:51;54.58;;;27.27;;
43088;SDS011;28709;52.030;5.652;2023-05-10T03:05:17;58.15;;;27.98;;
43088;SDS011;28709;52.030;5.652;2023-05-10T03:07:43;54.05;;;28.73;;
43088;SDS011;28709;52.030;5.652;2023-05-10T03:10:09;59.58;;;29.65;;
43088;SDS011;28709;52.030;5.652;2023-05-10T03:13:24;49.75;;;26.20;;
43088;SDS011;28709;52.030;5.652;2023-05-10T03:15:39;50.67;;;25.63;;
43088;SDS011;28709;52.030;5.652;2023-05-10T03:20:50;56.20;;;27.67;;
43088;SDS011;28709;52.030;5.652;2023-05-10T03:23:30;53.78;;;26.85;;
43088;SDS011;28709;52.030;5.652;2023-05-10T03:26:07;56.47;;;27.98;;
43088;SDS011;28709;52.030;5.652;2023-05-10T03:28:33;53.90;;;27.17;;
43088;SDS011;28709;52.030;5.652;2023-05-10T03:31:00;50.58;;;25.88;;
43088;SDS011;28709;52.030;5.652;2023-05-10T03:33:27;52.58;;;28.60;;
43088;SDS011;28709;52.030;5.652;2023-05-10T03:35:53;56.95;;;30.15;;
43088;SDS011;28709;52.030;5.652;2023-05-10T03:38:18;55.05;;;30.98;;
43088;SDS011;28709;52.030;5.652;2023-05-10T03:40:44;60.80;;;33.55;;
43088;SDS011;28709;52.030;5.652;2023-05-10T03:43:10;54.15;;;28.60;;
43088;SDS011;28709;52.030;5.652;2023-05-10T03:45:35;57.70;;;29.80;;
43088;SDS011;28709;52.030;5.652;2023-05-10T03:48:01;49.47;;;28.27;;
43088;SDS011;28709;52.030;5.652;2023-05-10T03:50:27;47.42;;;26.35;;
43088;SDS011;28709;52.030;5.652;2023-05-10T03:52:52;46.15;;;25.38;;
43088;SDS011;28709;52.030;5.652;2023-05-10T03:55:18;54.22;;;26.90;;
43088;SDS011;28709;52.030;5.652;2023-05-10T03:57:43;53.67;;;27.75;;
43088;SDS011;28709;52.030;5.652;2023-05-10T04:00:09;62.05;;;31.50;;
43088;SDS011;28709;52.030;5.652;2023-05-10T04:02:35;56.95;;;29.83;;
43088;SDS011;28709;52.030;5.652;2023-05-10T04:05:01;55.15;;;28.55;;
43088;SDS011;28709;52.030;5.652;2023-05-10T04:07:27;61.55;;;29.60;;
43088;SDS011;28709;52.030;5.652;2023-05-10T04:09:53;58.97;;;30.67;;
43088;SDS011;28709;52.030;5.652;2023-05-10T04:12:19;65.18;;;31.85;;
43088;SDS011;28709;52.030;5.652;2023-05-10T04:14:44;60.92;;;29.35;;
43088;SDS011;28709;52.030;5.652;2023-05-10T04:17:10;59.95;;;28.67;;
43088;SDS011;28709;52.030;5.652;2023-05-10T04:19:36;60.42;;;29.17;;
43088;SDS011;28709;52.030;5.652;2023-05-10T04:22:02;66.60;;;30.33;;
43088;SDS011;28709;52.030;5.652;2023-05-10T04:24:28;53.53;;;26.92;;
43088;SDS011;28709;52.030;5.652;2023-05-10T04:26:54;51.10;;;23.88;;
43088;SDS011;28709;52.030;5.652;2023-05-10T04:29:19;67.05;;;28.45;;
43088;SDS011;28709;52.030;5.652;2023-05-10T04:31:45;58.83;;;27.95;;
43088;SDS011;28709;52.030;5.652;2023-05-10T04:34:11;56.85;;;26.95;;
43088;SDS011;28709;52.030;5.652;2023-05-10T04:36:37;45.03;;;23.70;;
43088;SDS011;28709;52.030;5.652;2023-05-10T04:39:03;59.65;;;27.33;;
43088;SDS011;28709;52.030;5.652;2023-05-10T04:41:29;49.17;;;24.65;;
43088;SDS011;28709;52.030;5.652;2023-05-10T04:43:55;53.33;;;23.77;;
43088;SDS011;28709;52.030;5.652;2023-05-10T04:46:20;52.55;;;25.48;;
43088;SDS011;28709;52.030;5.652;2023-05-10T04:48:46;62.42;;;27.48;;
43088;SDS011;28709;52.030;5.652;2023-05-10T04:51:12;51.50;;;24.35;;
43088;SDS011;28709;52.030;5.652;2023-05-10T04:53:38;57.10;;;26.67;;
43088;SDS011;28709;52.030;5.652;2023-05-10T04:56:03;57.47;;;25.42;;
43088;SDS011;28709;52.030;5.652;2023-05-10T04:58:30;50.55;;;22.80;;
43088;SDS011;28709;52.030;5.652;2023-05-10T05:00:55;63.53;;;26.13;;
43088;SDS011;28709;52.030;5.652;2023-05-10T05:03:21;47.28;;;22.90;;
43088;SDS011;28709;52.030;5.652;2023-05-10T05:05:47;61.60;;;25.48;;
43088;SDS011;28709;52.030;5.652;2023-05-10T05:08:13;50.28;;;24.90;;
43088;SDS011;28709;52.030;5.652;2023-05-10T05:10:38;47.47;;;22.08;;
43088;SDS011;28709;52.030;5.652;2023-05-10T05:13:05;66.15;;;25.85;;
43088;SDS011;28709;52.030;5.652;2023-05-10T05:15:30;59.17;;;25.77;;
43088;SDS011;28709;52.030;5.652;2023-05-10T05:17:56;51.85;;;24.75;;
43088;SDS011;28709;52.030;5.652;2023-05-10T05:20:22;53.53;;;23.33;;
43088;SDS011;28709;52.030;5.652;2023-05-10T05:22:48;65.18;;;29.10;;
43088;SDS011;28709;52.030;5.652;2023-05-10T05:25:14;63.92;;;26.30;;
43088;SDS011;28709;52.030;5.652;2023-05-10T05:27:40;46.17;;;22.58;;
43088;SDS011;28709;52.030;5.652;2023-05-10T05:30:07;55.83;;;25.73;;
43088;SDS011;28709;52.030;5.652;2023-05-10T05:32:33;57.00;;;25.92;;
43088;SDS011;28709;52.030;5.652;2023-05-10T05:34:58;62.90;;;28.92;;
43088;SDS011;28709;52.030;5.652;2023-05-10T05:37:24;54.47;;;25.98;;
43088;SDS011;28709;52.030;5.652;2023-05-10T05:39:50;61.60;;;27.50;;
43088;SDS011;28709;52.030;5.652;2023-05-10T05:42:15;56.45;;;27.45;;
43088;SDS011;28709;52.030;5.652;2023-05-10T05:44:43;50.10;;;25.85;;
43088;SDS011;28709;52.030;5.652;2023-05-10T05:47:09;57.50;;;28.75;;
43088;SDS011;28709;52.030;5.652;2023-05-10T05:49:35;65.70;;;28.27;;
43088;SDS011;28709;52.030;5.652;2023-05-10T05:52:02;55.75;;;28.83;;
43088;SDS011;28709;52.030;5.652;2023-05-10T05:54:28;55.95;;;28.00;;
43088;SDS011;28709;52.030;5.652;2023-05-10T05:56:55;58.30;;;29.33;;
43088;SDS011;28709;52.030;5.652;2023-05-10T05:59:21;55.97;;;28.23;;
43088;SDS011;28709;52.030;5.652;2023-05-10T06:01:47;62.65;;;29.33;;
43088;SDS011;28709;52.030;5.652;2023-05-10T06:04:13;62.35;;;27.92;;
43088;SDS011;28709;52.030;5.652;2023-05-10T06:06:39;57.75;;;29.13;;
43088;SDS011;28709;52.030;5.652;2023-05-10T06:09:05;61.30;;;29.63;;
43088;SDS011;28709;52.030;5.652;2023-05-10T06:11:31;59.90;;;28.77;;
43088;SDS011;28709;52.030;5.652;2023-05-10T06:13:59;53.63;;;27.35;;
43088;SDS011;28709;52.030;5.652;2023-05-10T06:16:25;60.00;;;28.65;;
43088;SDS011;28709;52.030;5.652;2023-05-10T06:18:51;60.72;;;28.23;;
43088;SDS011;28709;52.030;5.652;2023-05-10T06:21:16;51.65;;;26.35;;
43088;SDS011;28709;52.030;5.652;2023-05-10T06:23:42;66.18;;;29.48;;
43088;SDS011;28709;52.030;5.652;2023-05-10T06:26:08;56.15;;;26.98;;
43088;SDS011;28709;52.030;5.652;2023-05-10T06:28:34;51.67;;;26.10;;
43088;SDS011;28709;52.030;5.652;2023-05-10T06:31:00;48.63;;;22.92;;
43088;SDS011;28709;52.030;5.652;2023-05-10T06:33:26;47.97;;;24.02;;
43088;SDS011;28709;52.030;5.652;2023-05-10T06:35:52;47.60;;;24.27;;
43088;SDS011;28709;52.030;5.652;2023-05-10T06:38:18;49.55;;;24.95;;
43088;SDS011;28709;52.030;5.652;2023-05-10T06:40:43;45.22;;;23.50;;
43088;SDS011;28709;52.030;5.652;2023-05-10T06:43:09;54.00;;;27.35;;
43088;SDS011;28709;52.030;5.652;2023-05-10T06:45:35;59.90;;;28.67;;
43088;SDS011;28709;52.030;5.652;2023-05-10T06:48:01;59.25;;;27.83;;
43088;SDS011;28709;52.030;5.652;2023-05-10T06:50:26;54.20;;;26.55;;
43088;SDS011;28709;52.030;5.652;2023-05-10T06:52:52;45.13;;;23.52;;
43088;SDS011;28709;52.030;5.652;2023-05-10T06:55:18;55.85;;;27.23;;
43088;SDS011;28709;52.030;5.652;2023-05-10T06:57:44;52.70;;;27.23;;
43088;SDS011;28709;52.030;5.652;2023-05-10T07:00:09;54.50;;;26.38;;
43088;SDS011;28709;52.030;5.652;2023-05-10T07:02:35;53.67;;;28.30;;
43088;SDS011;28709;52.030;5.652;2023-05-10T07:05:01;52.10;;;26.15;;
43088;SDS011;28709;52.030;5.652;2023-05-10T07:07:27;60.88;;;29.73;;
43088;SDS011;28709;52.030;5.652;2023-05-10T07:09:53;62.33;;;31.90;;
43088;SDS011;28709;52.030;5.652;2023-05-10T07:12:21;67.72;;;29.73;;
43088;SDS011;28709;52.030;5.652;2023-05-10T07:14:47;57.72;;;28.17;;
43088;SDS011;28709;52.030;5.652;2023-05-10T07:17:12;66.18;;;30.38;;
43088;SDS011;28709;52.030;5.652;2023-05-10T07:19:38;63.15;;;30.05;;
43088;SDS011;28709;52.030;5.652;2023-05-10T07:22:04;50.17;;;24.75;;
43088;SDS011;28709;52.030;5.652;2023-05-10T07:24:29;54.53;;;25.92;;
43088;SDS011;28709;52.030;5.652;2023-05-10T07:26:56;61.40;;;30.23;;
43088;SDS011;28709;52.030;5.652;2023-05-10T07:29:21;56.30;;;28.05;;
43088;SDS011;28709;52.030;5.652;2023-05-10T07:31:47;47.80;;;26.13;;
43088;SDS011;28709;52.030;5.652;2023-05-10T07:34:13;53.63;;;25.85;;
43088;SDS011;28709;52.030;5.652;2023-05-10T07:36:38;45.45;;;25.67;;
43088;SDS011;28709;52.030;5.652;2023-05-10T07:39:04;43.10;;;23.92;;
43088;SDS011;28709;52.030;5.652;2023-05-10T07:41:30;46.55;;;24.70;;
43088;SDS011;28709;52.030;5.652;2023-05-10T07:43:55;38.22;;;22.25;;
43088;SDS011;28709;52.030;5.652;2023-05-10T07:46:21;38.78;;;20.88;;
43088;SDS011;28709;52.030;5.652;2023-05-10T07:48:47;42.65;;;22.77;;
43088;SDS011;28709;52.030;5.652;2023-05-10T07:51:12;35.40;;;20.30;;
43088;SDS011;28709;52.030;5.652;2023-05-10T07:53:38;37.30;;;21.48;;
43088;SDS011;28709;52.030;5.652;2023-05-10T07:59:09;32.22;;;18.13;;
43088;SDS011;28709;52.030;5.652;2023-05-10T08:01:35;29.65;;;18.13;;
43088;SDS011;28709;52.030;5.652;2023-05-10T08:04:01;26.50;;;15.57;;
43088;SDS011;28709;52.030;5.652;2023-05-10T08:06:27;28.42;;;16.63;;
43088;SDS011;28709;52.030;5.652;2023-05-10T08:08:55;25.77;;;14.27;;
43088;SDS011;28709;52.030;5.652;2023-05-10T08:11:21;31.63;;;16.08;;
43088;SDS011;28709;52.030;5.652;2023-05-10T08:13:47;20.35;;;12.93;;
43088;SDS011;28709;52.030;5.652;2023-05-10T08:16:14;22.02;;;12.73;;
43088;SDS011;28709;52.030;5.652;2023-05-10T08:18:40;20.40;;;10.80;;
43088;SDS011;28709;52.030;5.652;2023-05-10T08:21:06;17.77;;;10.38;;
43088;SDS011;28709;52.030;5.652;2023-05-10T08:23:32;13.55;;;8.27;;
43088;SDS011;28709;52.030;5.652;2023-05-10T08:25:58;13.63;;;9.13;;
43088;SDS011;28709;52.030;5.652;2023-05-10T08:28:24;14.38;;;9.10;;
43088;SDS011;28709;52.030;5.652;2023-05-10T08:30:50;13.68;;;9.27;;
43088;SDS011;28709;52.030;5.652;2023-05-10T08:33:17;13.73;;;9.05;;
43088;SDS011;28709;52.030;5.652;2023-05-10T08:35:43;14.95;;;8.55;;
43088;SDS011;28709;52.030;5.652;2023-05-10T08:38:08;13.98;;;9.02;;
43088;SDS011;28709;52.030;5.652;2023-05-10T08:40:34;12.75;;;8.70;;
43088;SDS011;28709;52.030;5.652;2023-05-10T08:43:05;11.77;;;7.35;;
43088;SDS011;28709;52.030;5.652;2023-05-10T08:45:33;12.68;;;8.70;;
43088;SDS011;28709;52.030;5.652;2023-05-10T08:48:05;12.70;;;7.40;;
43088;SDS011;28709;52.030;5.652;2023-05-10T08:50:32;13.13;;;8.82;;
43088;SDS011;28709;52.030;5.652;2023-05-10T08:53:06;10.45;;;7.10;;
43088;SDS011;28709;52.030;5.652;2023-05-10T08:55:35;12.93;;;7.38;;
43088;SDS011;28709;52.030;5.652;2023-05-10T08:58:05;9.88;;;6.65;;
43088;SDS011;28709;52.030;5.652;2023-05-10T09:00:31;11.55;;;7.22;;
43088;SDS011;28709;52.030;5.652;2023-05-10T09:02:58;14.18;;;7.72;;
43088;SDS011;28709;52.030;5.652;2023-05-10T09:05:24;8.57;;;6.57;;
43088;SDS011;28709;52.030;5.652;2023-05-10T09:07:50;13.20;;;7.95;;
43088;SDS011;28709;52.030;5.652;2023-05-10T09:10:16;11.13;;;8.57;;
43088;SDS011;28709;52.030;5.652;2023-05-10T09:12:42;11.40;;;8.38;;
43088;SDS011;28709;52.030;5.652;2023-05-10T09:15:10;13.10;;;8.65;;
43088;SDS011;28709;52.030;5.652;2023-05-10T09:17:37;11.45;;;7.72;;
43088;SDS011;28709;52.030;5.652;2023-05-10T09:20:05;13.45;;;8.02;;
43088;SDS011;28709;52.030;5.652;2023-05-10T09:22:31;15.95;;;9.48;;
43088;SDS011;28709;52.030;5.652;2023-05-10T09:25:04;14.02;;;8.85;;
43088;SDS011;28709;52.030;5.652;2023-05-10T09:27:33;13.38;;;9.48;;
43088;SDS011;28709;52.030;5.652;2023-05-10T09:29:59;12.60;;;7.95;;
43088;SDS011;28709;52.030;5.652;2023-05-10T09:32:38;10.27;;;7.97;;
43088;SDS011;28709;52.030;5.652;2023-05-10T09:35:14;12.68;;;8.65;;
43088;SDS011;28709;52.030;5.652;2023-05-10T09:37:41;15.85;;;9.52;;
43088;SDS011;28709;52.030;5.652;2023-05-10T09:40:18;13.77;;;9.00;;
43088;SDS011;28709;52.030;5.652;2023-05-10T09:42:53;12.95;;;8.05;;
43088;SDS011;28709;52.030;5.652;2023-05-10T09:45:24;14.95;;;9.50;;
43088;SDS011;28709;52.030;5.652;2023-05-10T09:47:54;13.57;;;9.15;;
43088;SDS011;28709;52.030;5.652;2023-05-10T09:50:20;12.73;;;9.07;;
43088;SDS011;28709;52.030;5.652;2023-05-10T09:52:50;14.50;;;9.35;;
43088;SDS011;28709;52.030;5.652;2023-05-10T09:55:40;14.20;;;10.10;;
43088;SDS011;28709;52.030;5.652;2023-05-10T09:58:11;13.75;;;9.15;;
43088;SDS011;28709;52.030;5.652;2023-05-10T10:00:38;13.95;;;9.32;;
43088;SDS011;28709;52.030;5.652;2023-05-10T10:03:05;12.50;;;8.38;;
43088;SDS011;28709;52.030;5.652;2023-05-10T10:05:36;12.48;;;8.52;;
43088;SDS011;28709;52.030;5.652;2023-05-10T10:08:07;16.35;;;8.73;;
43088;SDS011;28709;52.030;5.652;2023-05-10T10:10:33;12.38;;;9.55;;
43088;SDS011;28709;52.030;5.652;2023-05-10T10:12:59;12.45;;;7.72;;
43088;SDS011;28709;52.030;5.652;2023-05-10T10:15:31;10.10;;;6.28;;
43088;SDS011;28709;52.030;5.652;2023-05-10T10:17:58;10.30;;;6.15;;
43088;SDS011;28709;52.030;5.652;2023-05-10T10:20:25;7.97;;;5.43;;
43088;SDS011;28709;52.030;5.652;2023-05-10T10:22:52;9.18;;;5.70;;
43088;SDS011;28709;52.030;5.652;2023-05-10T10:25:18;8.20;;;4.57;;
43088;SDS011;28709;52.030;5.652;2023-05-10T10:35:45;4.30;;;3.58;;
43088;SDS011;28709;52.030;5.652;2023-05-10T10:38:12;8.60;;;3.90;;
43088;SDS011;28709;52.030;5.652;2023-05-10T10:40:38;5.35;;;3.58;;
43088;SDS011;28709;52.030;5.652;2023-05-10T10:50:59;6.78;;;4.40;;
43088;SDS011;28709;52.030;5.652;2023-05-10T10:53:26;6.32;;;4.93;;
43088;SDS011;28709;52.030;5.652;2023-05-10T10:56:05;7.20;;;5.13;;
43088;SDS011;28709;52.030;5.652;2023-05-10T10:58:35;9.63;;;5.07;;
43088;SDS011;28709;52.030;5.652;2023-05-10T11:01:10;7.85;;;5.65;;
43088;SDS011;28709;52.030;5.652;2023-05-10T11:03:40;6.82;;;5.15;;
43088;SDS011;28709;52.030;5.652;2023-05-10T11:06:06;9.80;;;5.68;;
43088;SDS011;28709;52.030;5.652;2023-05-10T11:08:34;8.13;;;5.65;;
43088;SDS011;28709;52.030;5.652;2023-05-10T11:11:08;7.00;;;4.72;;
43088;SDS011;28709;52.030;5.652;2023-05-10T11:13:40;7.25;;;5.13;;
43088;SDS011;28709;52.030;5.652;2023-05-10T11:21:33;8.70;;;5.32;;
43088;SDS011;28709;52.030;5.652;2023-05-10T11:24:00;8.10;;;4.85;;
43088;SDS011;28709;52.030;5.652;2023-05-10T11:26:31;7.85;;;5.43;;
43088;SDS011;28709;52.030;5.652;2023-05-10T11:28:58;7.55;;;5.57;;
43088;SDS011;28709;52.030;5.652;2023-05-10T11:31:27;6.35;;;4.60;;
43088;SDS011;28709;52.030;5.652;2023-05-10T11:33:54;8.65;;;5.25;;
43088;SDS011;28709;52.030;5.652;2023-05-10T11:36:23;5.07;;;4.20;;
43088;SDS011;28709;52.030;5.652;2023-05-10T11:38:50;6.50;;;5.20;;
43088;SDS011;28709;52.030;5.652;2023-05-10T11:41:17;9.25;;;4.50;;
43088;SDS011;28709;52.030;5.652;2023-05-10T11:43:46;5.90;;;4.43;;
43088;SDS011;28709;52.030;5.652;2023-05-10T11:46:13;7.68;;;4.95;;
43088;SDS011;28709;52.030;5.652;2023-05-10T11:48:41;5.70;;;4.43;;
43088;SDS011;28709;52.030;5.652;2023-05-10T11:51:07;8.23;;;4.50;;
43088;SDS011;28709;52.030;5.652;2023-05-10T11:53:34;7.75;;;4.85;;
43088;SDS011;28709;52.030;5.652;2023-05-10T11:56:06;6.78;;;4.38;;
43088;SDS011;28709;52.030;5.652;2023-05-10T11:58:35;6.50;;;4.10;;
43088;SDS011;28709;52.030;5.652;2023-05-10T12:01:03;5.78;;;4.10;;
43088;SDS011;28709;52.030;5.652;2023-05-10T12:03:31;5.53;;;4.10;;
43088;SDS011;28709;52.030;5.652;2023-05-10T12:05:57;4.97;;;4.03;;
43088;SDS011;28709;52.030;5.652;2023-05-10T12:08:25;8.25;;;4.88;;
43088;SDS011;28709;52.030;5.652;2023-05-10T12:10:54;5.90;;;3.70;;
43088;SDS011;28709;52.030;5.652;2023-05-10T12:13:32;5.82;;;4.30;;
43088;SDS011;28709;52.030;5.652;2023-05-10T12:16:13;6.47;;;4.50;;
43088;SDS011;28709;52.030;5.652;2023-05-10T12:18:43;6.10;;;4.00;;
43088;SDS011;28709;52.030;5.652;2023-05-10T12:21:10;7.63;;;4.15;;
43088;SDS011;28709;52.030;5.652;2023-05-10T12:23:37;6.00;;;4.00;;
43088;SDS011;28709;52.030;5.652;2023-05-10T12:26:03;4.68;;;3.20;;
43088;SDS011;28709;52.030;5.652;2023-05-10T12:28:30;8.70;;;3.90;;
43088;SDS011;28709;52.030;5.652;2023-05-10T12:30:57;4.32;;;3.47;;
43088;SDS011;28709;52.030;5.652;2023-05-10T12:33:24;5.43;;;4.00;;
43088;SDS011;28709;52.030;5.652;2023-05-10T12:35:50;5.90;;;4.07;;
43088;SDS011;28709;52.030;5.652;2023-05-10T12:38:24;5.75;;;3.78;;
43088;SDS011;28709;52.030;5.652;2023-05-10T12:41:02;5.35;;;3.85;;
43088;SDS011;28709;52.030;5.652;2023-05-10T12:43:32;5.22;;;3.90;;
43088;SDS011;28709;52.030;5.652;2023-05-10T12:46:04;6.68;;;4.20;;
43088;SDS011;28709;52.030;5.652;2023-05-10T12:50:59;5.88;;;3.50;;
43088;SDS011;28709;52.030;5.652;2023-05-10T12:53:25;5.20;;;3.70;;
43088;SDS011;28709;52.030;5.652;2023-05-10T12:55:51;3.28;;;2.80;;
43088;SDS011;28709;52.030;5.652;2023-05-10T12:58:16;4.35;;;2.67;;
43088;SDS011;28709;52.030;5.652;2023-05-10T13:00:42;4.25;;;3.17;;
43088;SDS011;28709;52.030;5.652;2023-05-10T13:03:08;3.72;;;2.63;;
43088;SDS011;28709;52.030;5.652;2023-05-10T13:05:35;7.15;;;3.35;;
43088;SDS011;28709;52.030;5.652;2023-05-10T13:08:01;7.55;;;2.65;;
43088;SDS011;28709;52.030;5.652;2023-05-10T13:10:27;3.10;;;2.55;;
43088;SDS011;28709;52.030;5.652;2023-05-10T13:12:57;4.07;;;3.03;;
43088;SDS011;28709;52.030;5.652;2023-05-10T13:15:23;9.88;;;3.88;;
43088;SDS011;28709;52.030;5.652;2023-05-10T13:17:49;8.88;;;4.53;;
43088;SDS011;28709;52.030;5.652;2023-05-10T13:20:14;8.05;;;5.78;;
43088;SDS011;28709;52.030;5.652;2023-05-10T13:22:41;8.50;;;6.00;;
43088;SDS011;28709;52.030;5.652;2023-05-10T13:25:08;6.20;;;5.43;;
43088;SDS011;28709;52.030;5.652;2023-05-10T13:27:34;6.72;;;5.55;;
43088;SDS011;28709;52.030;5.652;2023-05-10T13:29:59;8.75;;;6.72;;
43088;SDS011;28709;52.030;5.652;2023-05-10T13:32:26;9.32;;;6.97;;
43088;SDS011;28709;52.030;5.652;2023-05-10T13:34:52;8.98;;;7.22;;
43088;SDS011;28709;52.030;5.652;2023-05-10T13:37:17;10.25;;;6.57;;
43088;SDS011;28709;52.030;5.652;2023-05-10T13:39:43;8.68;;;6.82;;
43088;SDS011;28709;52.030;5.652;2023-05-10T13:42:08;5.82;;;5.22;;
43088;SDS011;28709;52.030;5.652;2023-05-10T13:44:34;6.65;;;4.97;;
43088;SDS011;28709;52.030;5.652;2023-05-10T13:47:01;6.75;;;4.50;;
43088;SDS011;28709;52.030;5.652;2023-05-10T13:49:26;6.03;;;3.97;;
43088;SDS011;28709;52.030;5.652;2023-05-10T13:51:52;5.97;;;3.50;;
43088;SDS011;28709;52.030;5.652;2023-05-10T13:54:17;5.00;;;3.85;;
43088;SDS011;28709;52.030;5.652;2023-05-10T13:56:47;6.45;;;3.70;;
43088;SDS011;28709;52.030;5.652;2023-05-10T13:59:13;6.38;;;4.03;;
43088;SDS011;28709;52.030;5.652;2023-05-10T14:01:39;10.27;;;4.53;;
43088;SDS011;28709;52.030;5.652;2023-05-10T14:04:05;8.15;;;4.95;;
43088;SDS011;28709;52.030;5.652;2023-05-10T14:06:32;6.57;;;4.38;;
43088;SDS011;28709;52.030;5.652;2023-05-10T14:08:58;6.10;;;4.78;;
43088;SDS011;28709;52.030;5.652;2023-05-10T14:11:24;5.82;;;4.22;;
43088;SDS011;28709;52.030;5.652;2023-05-10T14:13:50;4.80;;;3.75;;
43088;SDS011;28709;52.030;5.652;2023-05-10T14:16:15;7.82;;;4.00;;
43088;SDS011;28709;52.030;5.652;2023-05-10T14:18:41;4.57;;;3.55;;
43088;SDS011;28709;52.030;5.652;2023-05-10T14:21:06;6.55;;;3.88;;
43088;SDS011;28709;52.030;5.652;2023-05-10T14:23:32;6.53;;;3.40;;
43088;SDS011;28709;52.030;5.652;2023-05-10T14:25:58;6.03;;;3.90;;
43088;SDS011;28709;52.030;5.652;2023-05-10T14:28:23;6.45;;;4.65;;
43088;SDS011;28709;52.030;5.652;2023-05-10T14:30:49;5.97;;;4.10;;
43088;SDS011;28709;52.030;5.652;2023-05-10T14:33:16;5.45;;;3.80;;
43088;SDS011;28709;52.030;5.652;2023-05-10T14:35:41;6.43;;;3.42;;
43088;SDS011;28709;52.030;5.652;2023-05-10T14:38:07;4.82;;;2.80;;
43088;SDS011;28709;52.030;5.652;2023-05-10T14:40:33;6.63;;;3.35;;
43088;SDS011;28709;52.030;5.652;2023-05-10T14:42:59;4.30;;;3.30;;
43088;SDS011;28709;52.030;5.652;2023-05-10T14:45:25;5.45;;;3.38;;
43088;SDS011;28709;52.030;5.652;2023-05-10T14:47:50;6.32;;;3.40;;
43088;SDS011;28709;52.030;5.652;2023-05-10T14:50:16;6.38;;;3.83;;
43088;SDS011;28709;52.030;5.652;2023-05-10T14:52:43;4.68;;;3.30;;
43088;SDS011;28709;52.030;5.652;2023-05-10T14:55:11;5.70;;;4.15;;
43088;SDS011;28709;52.030;5.652;2023-05-10T14:57:37;5.78;;;3.30;;
43088;SDS011;28709;52.030;5.652;2023-05-10T15:00:03;4.30;;;2.88;;
43088;SDS011;28709;52.030;5.652;2023-05-10T15:02:30;4.95;;;3.53;;
43088;SDS011;28709;52.030;5.652;2023-05-10T15:04:56;5.68;;;3.47;;
43088;SDS011;28709;52.030;5.652;2023-05-10T15:07:22;8.32;;;4.38;;
43088;SDS011;28709;52.030;5.652;2023-05-10T15:09:48;7.57;;;5.22;;
43088;SDS011;28709;52.030;5.652;2023-05-10T15:12:15;8.68;;;5.07;;
43088;SDS011;28709;52.030;5.652;2023-05-10T15:14:40;7.82;;;4.85;;